Time;durP1;ratioP1;P1;durP2;ratioP2;P2;SDS_P1;SDS_P2;PMS_P1;PMS_P2;Temp;Humidity;BMP_temperature;BMP_pressure;BME280_temperature;BME280_humidity;BME280_pressure;Samples;Min_cycle;Max_cycle;Signal;HPM_P1;HPM_P2
2022/09/23 00:01:38;;;;;;;4.10;2.77;;;;;;;9.65;100.00;99364.94;5013788;28;20257;-80
2022/09/23 00:04:07;;;;;;;4.63;3.20;;;;;;;9.58;100.00;99365.34;5008614;28;20270;-80
2022/09/23 00:06:39;;;;;;;4.10;2.60;;;;;;;9.61;100.00;99367.81;5012812;28;20198;-80
2022/09/23 00:09:09;;;;;;;2.90;2.50;;;;;;;9.56;100.00;99369.88;5024354;28;20332;-79
2022/09/23 00:11:40;;;;;;;5.57;2.57;;;;;;;9.46;100.00;99370.41;5042010;28;20288;-80
2022/09/23 00:14:10;;;;;;;5.47;2.80;;;;;;;9.61;100.00;99366.03;5089353;28;20200;-80
2022/09/23 00:16:41;;;;;;;4.53;2.50;;;;;;;9.49;100.00;99372.00;5095167;28;20206;-80
2022/09/23 00:19:10;;;;;;;3.40;2.90;;;;;;;9.45;100.00;99370.47;5096982;28;20284;-80
2022/09/23 00:21:41;;;;;;;4.80;2.77;;;;;;;9.34;100.00;99368.41;5098333;28;20246;-80
2022/09/23 00:24:09;;;;;;;6.23;2.73;;;;;;;9.33;100.00;99365.88;5098091;28;20192;-80
2022/09/23 00:26:39;;;;;;;3.53;2.40;;;;;;;9.42;100.00;99373.28;5097074;28;20237;-80
2022/09/23 00:29:07;;;;;;;3.87;2.33;;;;;;;9.20;100.00;99363.06;5099392;28;20262;-79
2022/09/23 00:31:36;;;;;;;4.83;2.87;;;;;;;9.16;100.00;99361.50;5095760;28;20243;-79
2022/09/23 00:34:04;;;;;;;4.47;2.70;;;;;;;9.09;100.00;99366.28;5090198;28;20211;-80
2022/09/23 00:36:33;;;;;;;2.70;2.40;;;;;;;9.21;100.00;99364.75;5093285;28;20191;-79
2022/09/23 00:39:03;;;;;;;3.63;2.90;;;;;;;9.14;100.00;99358.94;4991298;28;20273;-79
2022/09/23 00:41:33;;;;;;;4.37;2.60;;;;;;;9.17;100.00;99368.53;4975134;28;20218;-80
2022/09/23 00:44:22;;;;;;;4.50;2.30;;;;;;;8.98;100.00;99357.25;4970719;28;20659;-80
2022/09/23 00:46:51;;;;;;;3.27;2.53;;;;;;;8.94;100.00;99363.63;4972417;28;20207;-79
2022/09/23 00:49:27;;;;;;;3.83;2.23;;;;;;;9.01;100.00;99355.28;4969028;28;20203;-79
2022/09/23 00:52:01;;;;;;;6.77;2.97;;;;;;;8.88;100.00;99351.63;4968398;28;20282;-79
2022/09/23 00:54:35;;;;;;;4.27;3.07;;;;;;;8.90;100.00;99352.38;4965819;28;20250;-79
2022/09/23 00:57:05;;;;;;;3.90;2.90;;;;;;;9.01;100.00;99350.00;4958374;28;20287;-79
2022/09/23 00:59:37;;;;;;;3.80;2.20;;;;;;;8.99;100.00;99349.25;5043368;28;20216;-80
2022/09/23 01:02:08;;;;;;;4.10;2.63;;;;;;;8.97;100.00;99350.22;5071841;28;20227;-79
2022/09/23 01:04:40;;;;;;;3.27;2.50;;;;;;;9.02;100.00;99349.06;5099090;27;20358;-79
2022/09/23 01:07:09;;;;;;;4.40;2.40;;;;;;;8.77;100.00;99346.88;5129956;27;20225;-80
2022/09/23 01:09:39;;;;;;;4.07;2.70;;;;;;;8.76;100.00;99341.69;5133627;27;20198;-80
2022/09/23 01:12:20;;;;;;;3.07;2.67;;;;;;;8.83;100.00;99337.78;5127042;27;20186;-79
2022/09/23 01:14:59;;;;;;;3.10;2.70;;;;;;;8.85;100.00;99334.13;5088331;28;20199;-79
2022/09/23 01:17:38;;;;;;;8.80;2.70;;;;;;;8.82;100.00;99333.44;5092222;28;20199;-79
2022/09/23 01:20:40;;;;;;;3.00;2.70;;;;;;;8.73;100.00;99334.78;5086975;28;20277;-79
2022/09/23 01:23:29;;;;;;;2.90;2.60;;;;;;;8.88;100.00;99326.06;5092027;28;20211;-79
2022/09/23 01:26:15;;;;;;;4.37;2.63;;;;;;;8.83;100.00;99325.44;5085388;28;20196;-79
2022/09/23 01:29:02;;;;;;;4.07;2.57;;;;;;;8.81;100.00;99321.19;5086424;28;20215;-79
2022/09/23 01:31:45;;;;;;;7.63;2.90;;;;;;;8.79;100.00;99323.91;5090487;28;20223;-79
2022/09/23 01:34:23;;;;;;;5.77;2.73;;;;;;;8.63;100.00;99317.72;5024761;28;20223;-79
2022/09/23 01:37:01;;;;;;;3.07;2.70;;;;;;;8.73;100.00;99316.31;5029177;28;20232;-80
2022/09/23 01:39:39;;;;;;;4.90;2.87;;;;;;;8.65;100.00;99321.13;5028229;28;20213;-79
2022/09/23 01:42:17;;;;;;;3.73;2.50;;;;;;;8.75;100.00;99324.13;5031396;28;20202;-79
2022/09/23 01:44:51;;;;;;;8.70;3.00;;;;;;;8.64;100.00;99327.34;5031259;28;20198;-80
2022/09/23 01:47:25;;;;;;;6.47;2.97;;;;;;;8.80;100.00;99317.69;5071169;28;20184;-78
2022/09/23 01:49:59;;;;;;;5.13;2.50;;;;;;;8.57;100.00;99325.97;5066912;28;20200;-80
2022/09/23 01:52:37;;;;;;;3.77;2.60;;;;;;;8.32;100.00;99324.59;5102723;27;20190;-80
2022/09/23 01:55:11;;;;;;;4.73;3.10;;;;;;;8.31;100.00;99324.69;5129730;27;20186;-80
2022/09/23 01:57:44;;;;;;;5.03;2.97;;;;;;;8.41;100.00;99319.81;5128812;27;20194;-79
2022/09/23 02:00:16;;;;;;;9.40;3.23;;;;;;;8.45;100.00;99318.72;5131171;27;20210;-79
2022/09/23 02:02:52;;;;;;;6.93;3.07;;;;;;;8.57;100.00;99320.69;5134257;27;20198;-80
2022/09/23 02:05:27;;;;;;;4.20;2.83;;;;;;;8.41;100.00;99312.75;5127392;27;20283;-80
2022/09/23 02:08:00;;;;;;;5.87;3.30;;;;;;;8.30;100.00;99308.00;5129876;27;20264;-80
2022/09/23 02:10:36;;;;;;;4.80;2.97;;;;;;;8.18;100.00;99315.69;5131644;27;20198;-81
2022/09/23 02:13:12;;;;;;;4.27;2.97;;;;;;;8.08;100.00;99314.44;5134645;27;20223;-80
2022/09/23 02:15:47;;;;;;;3.77;2.57;;;;;;;8.22;100.00;99318.09;5131482;27;20198;-81
2022/09/23 02:18:27;;;;;;;3.90;2.87;;;;;;;8.38;100.00;99312.03;5130815;27;20202;-80
2022/09/23 02:20:59;;;;;;;4.40;2.70;;;;;;;8.30;100.00;99304.50;5128641;27;20652;-80
2022/09/23 02:23:32;;;;;;;4.17;2.93;;;;;;;8.20;100.00;99312.06;5133638;27;20197;-80
2022/09/23 02:26:07;;;;;;;5.63;2.80;;;;;;;8.08;100.00;99310.03;5132965;27;20194;-80
2022/09/23 02:28:48;;;;;;;4.87;2.83;;;;;;;8.14;100.00;99307.09;5130762;28;20214;-81
2022/09/23 02:31:26;;;;;;;4.83;3.37;;;;;;;7.90;100.00;99306.53;5129739;28;20191;-81
2022/09/23 02:34:02;;;;;;;6.47;3.00;;;;;;;7.89;100.00;99312.75;5131299;28;20182;-81
2022/09/23 02:36:38;;;;;;;6.33;2.90;;;;;;;7.93;100.00;99305.56;5127251;28;20186;-79
2022/09/23 02:39:11;;;;;;;5.13;2.80;;;;;;;7.91;100.00;99303.00;5095080;28;20698;-79
2022/09/23 02:41:57;;;;;;;5.50;2.70;;;;;;;7.95;100.00;99309.81;5124488;28;20364;-80
2022/09/23 02:44:27;;;;;;;3.90;2.40;;;;;;;8.01;100.00;99304.22;5150027;27;20186;-80
2022/09/23 02:46:56;;;;;;;5.30;2.20;;;;;;;7.94;100.00;99294.06;5149842;27;20193;-80
2022/09/23 02:49:28;;;;;;;3.70;2.50;;;;;;;7.83;100.00;99305.16;5144279;27;20605;-80
2022/09/23 02:51:59;;;;;;;7.20;2.87;;;;;;;7.88;100.00;99303.13;5144324;27;20201;-80
2022/09/23 02:54:29;;;;;;;4.10;2.40;;;;;;;7.86;100.00;99294.44;5144123;27;20189;-80
2022/09/23 02:57:01;;;;;;;3.93;2.50;;;;;;;7.74;100.00;99298.56;5143494;27;20292;-80
2022/09/23 02:59:36;;;;;;;5.43;2.50;;;;;;;7.74;100.00;99293.28;5109975;28;20217;-80
2022/09/23 03:02:21;;;;;;;4.13;2.60;;;;;;;7.83;100.00;99289.34;5089998;28;20246;-80
2022/09/23 03:05:03;;;;;;;3.13;2.83;;;;;;;7.83;100.00;99288.50;5061761;28;20235;-79
2022/09/23 03:07:42;;;;;;;4.33;2.60;;;;;;;7.85;100.00;99276.06;5060345;28;20250;-80
2022/09/23 03:10:19;;;;;;;4.13;2.60;;;;;;;7.91;100.00;99288.94;5063712;28;20227;-80
2022/09/23 03:13:00;;;;;;;4.90;2.30;;;;;;;7.85;100.00;99284.00;5070506;28;20189;-80
2022/09/23 03:15:36;;;;;;;3.47;2.37;;;;;;;7.74;100.00;99284.53;5064531;28;20208;-80
2022/09/23 03:18:13;;;;;;;3.53;2.30;;;;;;;7.79;100.00;99279.00;5112257;28;20241;-80
2022/09/23 03:20:50;;;;;;;3.73;2.20;;;;;;;7.71;100.00;99282.88;5126640;28;20274;-80
2022/09/23 03:23:24;;;;;;;2.97;2.33;;;;;;;7.71;100.00;99274.97;5125217;28;20271;-80
2022/09/23 03:25:54;;;;;;;4.13;2.60;;;;;;;7.76;100.00;99272.13;5130609;28;20193;-79
2022/09/23 03:28:24;;;;;;;3.03;2.50;;;;;;;7.86;100.00;99273.34;5126942;28;20195;-80
2022/09/23 03:30:55;;;;;;;3.63;2.37;;;;;;;7.67;100.00;99269.94;5128400;28;20198;-80
2022/09/23 03:33:27;;;;;;;3.23;2.30;;;;;;;7.71;100.00;99274.13;5127877;28;20229;-79
2022/09/23 03:38:51;;;;;;;5.53;2.50;;;;;;;7.75;100.00;99275.69;5133386;28;20251;-80
2022/09/23 03:41:27;;;;;;;3.17;2.50;;;;;;;7.61;100.00;99272.88;5129481;27;20260;-80
2022/09/23 03:43:58;;;;;;;4.83;2.53;;;;;;;7.63;100.00;99263.13;5126642;27;20235;-80
2022/09/23 03:46:29;;;;;;;5.60;2.73;;;;;;;7.44;100.00;99265.84;5136549;27;20198;-81
2022/09/23 03:49:04;;;;;;;6.47;2.87;;;;;;;7.59;100.00;99266.84;5131289;27;20190;-79
2022/09/23 03:51:35;;;;;;;4.00;2.70;;;;;;;7.43;100.00;99264.09;5132815;27;20247;-80
2022/09/23 03:54:05;;;;;;;5.33;3.10;;;;;;;7.56;100.00;99256.47;5137021;27;20205;-80
2022/09/23 03:56:33;;;;;;;6.13;2.97;;;;;;;7.54;100.00;99258.31;5130418;27;20244;-80
2022/09/23 03:59:02;;;;;;;5.50;3.03;;;;;;;7.49;100.00;99255.06;5132656;27;20199;-80
2022/09/23 04:01:30;;;;;;;4.50;3.30;;;;;;;7.51;100.00;99254.03;5124749;27;20250;-79
2022/09/23 04:03:58;;;;;;;4.27;3.00;;;;;;;7.51;100.00;99253.19;5133249;27;20198;-80
2022/09/23 04:06:27;;;;;;;7.57;2.90;;;;;;;7.47;100.00;99248.06;5130103;27;20222;-80
2022/09/23 04:08:58;;;;;;;4.33;2.80;;;;;;;7.59;100.00;99246.59;5129734;27;20194;-79
2022/09/23 04:11:27;;;;;;;4.07;2.50;;;;;;;7.55;100.00;99247.69;5130242;27;20190;-79
2022/09/23 04:13:56;;;;;;;6.87;4.90;;;;;;;7.55;100.00;99247.69;5131412;27;20201;-80
2022/09/23 04:16:25;;;;;;;20.73;11.13;;;;;;;7.39;100.00;99249.38;5135214;27;20194;-80
2022/09/23 04:18:59;;;;;;;25.80;13.37;;;;;;;7.44;100.00;99245.59;5132297;27;20194;-80
2022/09/23 04:21:30;;;;;;;23.77;13.30;;;;;;;7.55;100.00;99242.44;5134344;27;20218;-80
2022/09/23 04:24:00;;;;;;;27.73;13.73;;;;;;;7.56;100.00;99240.66;5123138;27;20270;-80
2022/09/23 04:26:29;;;;;;;22.37;12.87;;;;;;;7.45;100.00;99249.94;5132280;27;20259;-79
2022/09/23 04:28:57;;;;;;;13.47;8.47;;;;;;;7.43;100.00;99243.03;5133325;27;20191;-80
2022/09/23 04:31:27;;;;;;;10.73;6.30;;;;;;;7.45;100.00;99239.41;5130786;27;20224;-80
2022/09/23 04:33:56;;;;;;;8.43;4.50;;;;;;;7.32;100.00;99238.28;5131548;27;20210;-80
2022/09/23 04:36:28;;;;;;;8.37;5.03;;;;;;;7.23;100.00;99245.78;5132007;27;20224;-80
2022/09/23 04:38:56;;;;;;;8.33;4.87;;;;;;;7.35;100.00;99234.66;5129203;27;20197;-80
2022/09/23 04:41:26;;;;;;;9.27;4.50;;;;;;;7.46;100.00;99241.09;5131869;27;20214;-80
2022/09/23 04:43:56;;;;;;;7.53;4.50;;;;;;;7.68;100.00;99243.50;5129041;27;20246;-80
2022/09/23 04:46:25;;;;;;;7.23;4.50;;;;;;;7.53;100.00;99240.78;5132914;27;20187;-80
2022/09/23 04:48:54;;;;;;;5.23;4.43;;;;;;;7.54;100.00;99232.81;5132177;27;20186;-80
2022/09/23 04:51:24;;;;;;;7.23;4.53;;;;;;;7.53;100.00;99232.88;5131554;27;20239;-80
2022/09/23 04:53:55;;;;;;;6.27;3.93;;;;;;;7.49;100.00;99240.09;5054343;28;20216;-80
2022/09/23 04:56:26;;;;;;;6.17;3.80;;;;;;;7.68;100.00;99235.59;5046500;28;20189;-80
2022/09/23 04:58:57;;;;;;;4.47;3.60;;;;;;;7.49;100.00;99241.88;5049522;28;20193;-80
2022/09/23 05:01:27;;;;;;;4.67;3.70;;;;;;;7.47;100.00;99237.53;5050770;28;20221;-80
2022/09/23 05:04:00;;;;;;;5.93;4.10;;;;;;;7.53;100.00;99238.16;5047651;28;20193;-80
2022/09/23 05:06:30;;;;;;;4.77;3.60;;;;;;;7.46;100.00;99242.88;5051141;28;20193;-80
2022/09/23 05:08:59;;;;;;;3.97;3.30;;;;;;;7.45;100.00;99242.03;5044180;28;20667;-80
2022/09/23 05:11:31;;;;;;;4.47;3.20;;;;;;;7.44;100.00;99242.13;5050799;28;20200;-80
2022/09/23 05:14:01;;;;;;;4.83;3.40;;;;;;;7.54;100.00;99243.38;5051936;28;20200;-80
2022/09/23 05:16:29;;;;;;;5.87;3.60;;;;;;;7.49;100.00;99241.88;5047940;28;20702;-80
2022/09/23 05:18:58;;;;;;;4.93;3.23;;;;;;;7.50;100.00;99244.44;5051278;28;20189;-80
2022/09/23 05:21:27;;;;;;;4.87;3.70;;;;;;;7.71;100.00;99245.13;5046034;28;20656;-80
2022/09/23 05:23:59;;;;;;;5.03;3.60;;;;;;;7.75;100.00;99244.91;5052344;27;20228;-80
2022/09/23 05:26:31;;;;;;;6.83;3.77;;;;;;;7.73;100.00;99249.41;5131863;27;20226;-80
2022/09/23 05:29:00;;;;;;;5.17;3.13;;;;;;;7.62;100.00;99243.81;5131935;27;20182;-80
2022/09/23 05:31:29;;;;;;;4.00;3.43;;;;;;;7.61;100.00;99241.25;5130719;27;20194;-80
2022/09/23 05:34:00;;;;;;;6.70;3.27;;;;;;;7.57;100.00;99243.19;5124800;27;20190;-80
2022/09/23 05:36:30;;;;;;;5.83;3.30;;;;;;;7.57;100.00;99251.09;5130970;27;20190;-79
2022/09/23 05:39:05;;;;;;;3.40;3.03;;;;;;;7.55;100.00;99246.84;5132832;27;20271;-80
2022/09/23 05:41:36;;;;;;;3.63;3.03;;;;;;;7.41;100.00;99247.53;5128772;27;20214;-79
2022/09/23 05:44:05;;;;;;;6.17;2.97;;;;;;;7.41;100.00;99255.44;5130145;27;20194;-80
2022/09/23 05:46:34;;;;;;;3.07;2.70;;;;;;;7.51;100.00;99261.94;5128946;27;20194;-80
2022/09/23 05:49:04;;;;;;;3.23;2.93;;;;;;;7.62;100.00;99264.03;5096522;27;20249;-80
2022/09/23 05:51:35;;;;;;;4.20;3.10;;;;;;;7.74;100.00;99258.16;5135344;27;20198;-80
2022/09/23 05:54:04;;;;;;;4.30;2.70;;;;;;;7.88;100.00;99255.66;5135032;27;20495;-80
2022/09/23 05:56:34;;;;;;;4.60;3.00;;;;;;;7.97;100.00;99262.25;5124142;27;20644;-80
2022/09/23 05:59:06;;;;;;;4.43;3.30;;;;;;;8.04;100.00;99261.88;5130244;27;20217;-80
2022/09/23 06:01:37;;;;;;;4.30;3.10;;;;;;;8.08;100.00;99259.91;5127254;27;20206;-80
2022/09/23 06:04:07;;;;;;;3.50;3.10;;;;;;;8.09;100.00;99256.34;5127005;27;20216;-80
2022/09/23 06:06:41;;;;;;;4.60;3.40;;;;;;;8.22;100.00;99261.84;5129129;27;20190;-80
2022/09/23 06:09:13;;;;;;;6.27;3.50;;;;;;;8.19;100.00;99254.91;5115495;27;20243;-80
2022/09/23 06:11:42;;;;;;;3.20;2.90;;;;;;;8.27;100.00;99262.44;5132821;27;20194;-80
2022/09/23 06:14:13;;;;;;;4.30;3.30;;;;;;;8.18;100.00;99257.63;5130427;27;20210;-80
2022/09/23 06:16:43;;;;;;;6.23;2.93;;;;;;;8.25;100.00;99257.25;5131117;27;20217;-80
2022/09/23 06:19:12;;;;;;;5.43;3.47;;;;;;;8.31;100.00;99253.44;5129811;27;20778;-80
2022/09/23 06:21:43;;;;;;;5.53;3.10;;;;;;;8.26;100.00;99255.44;5127384;27;20214;-80
2022/09/23 06:24:11;;;;;;;3.83;3.03;;;;;;;8.32;100.00;99260.41;5133304;27;20193;-79
2022/09/23 06:26:47;;;;;;;8.80;3.43;;;;;;;8.47;100.00;99256.13;5129846;27;20193;-80
2022/09/23 06:29:20;;;;;;;4.67;3.47;;;;;;;8.56;100.00;99247.72;5133805;27;20182;-80
2022/09/23 06:31:49;;;;;;;5.33;3.13;;;;;;;8.56;100.00;99240.63;5126266;28;20191;-80
2022/09/23 06:34:19;;;;;;;5.60;3.17;;;;;;;8.74;100.00;99240.56;5126864;28;20217;-80
2022/09/23 06:36:50;;;;;;;4.57;3.30;;;;;;;8.74;100.00;99240.56;5128681;28;20194;-80
2022/09/23 06:39:18;;;;;;;3.93;3.37;;;;;;;8.83;100.00;99242.72;5127844;28;20202;-80
2022/09/23 06:41:47;;;;;;;3.83;3.27;;;;;;;8.89;100.00;99230.03;5130001;28;20236;-79
2022/09/23 06:44:15;;;;;;;8.57;4.00;;;;;;;8.83;100.00;99233.00;5129634;28;20266;-80
2022/09/23 06:46:45;;;;;;;5.23;3.53;;;;;;;8.87;100.00;99228.38;5125433;28;20241;-79
2022/09/23 06:49:14;;;;;;;5.73;3.67;;;;;;;9.12;100.00;99231.34;5129333;28;20199;-80
2022/09/23 06:51:46;;;;;;;4.20;3.43;;;;;;;9.20;100.00;99224.78;5132908;28;20194;-80
2022/09/23 06:54:14;;;;;;;5.37;3.70;;;;;;;9.46;100.00;99226.78;5123578;28;20195;-80
2022/09/23 06:56:46;;;;;;;4.70;3.50;;;;;;;9.49;100.00;99223.09;5127473;28;20262;-80
2022/09/23 06:59:16;;;;;;;3.60;3.10;;;;;;;9.46;100.00;99226.78;5133396;28;20194;-80
2022/09/23 07:01:47;;;;;;;3.80;2.90;;;;;;;9.64;100.00;99224.81;5133432;28;20214;-80
2022/09/23 07:04:16;;;;;;;4.93;2.83;;;;;;;9.85;100.00;99222.72;5128351;28;20716;-80
2022/09/23 07:06:45;;;;;;;4.03;3.30;;;;;;;9.57;100.00;99220.88;5129274;28;20233;-80
2022/09/23 07:09:13;;;;;;;4.20;3.17;;;;;;;9.79;100.00;99225.72;5127803;28;20217;-80
2022/09/23 07:11:42;;;;;;;3.83;3.00;;;;;;;10.00;100.00;99227.06;5130844;28;20194;-80
2022/09/23 07:14:10;;;;;;;4.30;2.77;;;;;;;10.08;100.00;99223.97;5131107;28;20630;-81
2022/09/23 07:16:40;;;;;;;5.13;3.17;;;;;;;10.00;100.00;99230.56;5128018;27;20186;-80
2022/09/23 07:19:12;;;;;;;3.70;3.10;;;;;;;10.24;100.00;99230.06;5131785;27;20221;-80
2022/09/23 07:21:41;;;;;;;4.90;3.40;;;;;;;10.23;100.00;99223.94;5130987;27;20246;-80
2022/09/23 07:24:09;;;;;;;4.83;3.17;;;;;;;10.23;100.00;99221.28;5137494;27;20218;-80
2022/09/23 07:26:39;;;;;;;4.73;3.47;;;;;;;10.43;100.00;99219.19;5093089;28;20192;-80
2022/09/23 07:29:14;;;;;;;3.97;3.40;;;;;;;10.54;100.00;99214.06;5094265;28;20187;-80
2022/09/23 07:31:43;;;;;;;5.37;3.30;;;;;;;10.57;100.00;99217.38;5086001;28;20203;-81
2022/09/23 07:34:16;;;;;;;4.07;3.23;;;;;;;10.74;100.00;99216.31;5082861;28;20203;-80
2022/09/23 07:36:44;;;;;;;5.43;3.53;;;;;;;10.75;100.00;99210.06;5089509;28;20719;-81
2022/09/23 07:39:17;;;;;;;3.20;2.90;;;;;;;11.02;100.00;99209.22;5091905;28;20228;-81
2022/09/23 07:41:45;;;;;;;5.00;3.60;;;;;;;10.97;100.00;99211.31;5087515;28;20365;-81
2022/09/23 07:44:13;;;;;;;5.73;3.90;;;;;;;11.00;100.00;99209.34;5102332;27;20186;-81
2022/09/23 07:46:42;;;;;;;5.67;3.80;;;;;;;11.03;100.00;99209.13;5128033;27;20189;-81
2022/09/23 07:49:10;;;;;;;4.03;3.50;;;;;;;11.11;100.00;99220.09;5128220;27;20190;-81
2022/09/23 07:51:45;;;;;;;3.83;3.43;;;;;;;11.27;100.00;99216.41;5107413;28;20199;-80
2022/09/23 07:54:15;;;;;;;4.67;3.23;;;;;;;11.34;100.00;99215.91;5107637;28;20240;-81
2022/09/23 07:56:44;;;;;;;4.60;3.27;;;;;;;11.50;100.00;99213.09;5102814;28;20202;-80
2022/09/23 07:59:17;;;;;;;5.17;3.27;;;;;;;11.63;100.00;99210.47;5105564;28;20225;-81
2022/09/23 08:01:49;;;;;;;3.30;2.97;;;;;;;11.74;100.00;99215.91;5110002;28;20244;-81
2022/09/23 08:04:20;;;;;;;4.27;2.67;;;;;;;11.95;100.00;99210.94;5112064;28;20666;-81
2022/09/23 08:06:54;;;;;;;4.17;2.70;;;;;;;12.19;100.00;99211.06;5114081;28;20188;-81
2022/09/23 08:09:26;;;;;;;3.30;2.90;;;;;;;12.21;100.00;99210.00;5118017;27;20187;-81
2022/09/23 08:11:56;;;;;;;4.73;2.93;;;;;;;12.17;100.00;99213.84;5133547;27;20213;-81
2022/09/23 08:14:24;;;;;;;3.97;3.10;;;;;;;12.41;100.00;99213.91;5136464;27;20191;-80
2022/09/23 08:16:53;;;;;;;4.20;3.10;;;;;;;12.59;100.00;99211.75;5128980;27;20202;-81
2022/09/23 08:19:21;;;;;;;4.67;3.07;;;;;;;12.67;100.00;99208.56;5132268;27;20235;-81
2022/09/23 08:21:53;;;;;;;3.77;2.70;;;;;;;12.68;100.00;99216.41;5111349;28;20380;-80
2022/09/23 08:24:25;;;;;;;2.60;2.23;;;;;;;12.83;100.00;99199.34;5110965;28;20266;-80
2022/09/23 08:26:54;;;;;;;3.30;2.40;;;;;;;12.95;100.00;99210.91;5077546;28;20203;-80
2022/09/23 08:29:26;;;;;;;2.30;2.10;;;;;;;12.94;100.00;99211.03;5107272;28;20203;-81
2022/09/23 08:31:55;;;;;;;5.53;2.50;;;;;;;13.03;100.00;99205.06;5113797;28;20194;-80
2022/09/23 08:34:23;;;;;;;2.43;2.10;;;;;;;13.36;100.00;99205.22;5062204;28;20203;-80
2022/09/23 08:36:53;;;;;;;4.73;2.60;;;;;;;13.46;100.00;99200.91;5109237;28;20199;-80
2022/09/23 08:39:24;;;;;;;3.60;2.60;;;;;;;13.56;100.00;99213.53;5114527;27;20182;-80
2022/09/23 08:42:12;;;;;;;2.40;2.10;;;;;;;13.43;100.00;99206.47;5133140;27;20199;-80
2022/09/23 08:44:48;;;;;;;2.97;2.50;;;;;;;13.59;100.00;99205.31;5135888;27;20191;-80
2022/09/23 08:47:22;;;;;;;4.33;2.40;;;;;;;13.60;100.00;99207.84;5132513;27;20189;-80
2022/09/23 08:50:02;;;;;;;2.33;1.90;;;;;;;13.71;100.00;99202.59;5127044;27;20393;-80
2022/09/23 08:52:39;;;;;;;3.60;2.50;;;;;;;13.81;100.00;99215.19;5132915;27;20235;-80
2022/09/23 08:55:12;;;;;;;3.10;2.63;;;;;;;13.75;100.00;99200.53;5135890;27;20186;-79
2022/09/23 08:57:49;;;;;;;4.70;2.60;;;;;;;13.92;100.00;99207.22;5135490;27;20255;-80
2022/09/23 09:00:41;;;;;;;6.50;2.77;;;;;;;13.92;100.00;99199.25;5135652;27;20195;-80
2022/09/23 09:03:25;;;;;;;2.83;2.37;;;;;;;14.32;100.00;99191.66;5130895;27;20225;-80
2022/09/23 09:05:55;;;;;;;3.93;2.53;;;;;;;14.11;100.00;99190.66;5125616;27;20222;-80
2022/09/23 09:08:31;;;;;;;4.90;2.40;;;;;;;14.40;100.00;99185.72;5136141;27;20198;-80
2022/09/23 09:10:59;;;;;;;3.60;2.27;;;;;;;14.79;100.00;99189.72;5133408;27;20221;-81
2022/09/23 09:13:32;;;;;;;3.93;2.73;;;;;;;14.64;100.00;99190.94;5130741;27;20194;-82
2022/09/23 09:16:22;;;;;;;5.00;2.83;;;;;;;15.10;100.00;99191.56;5127327;27;20202;-81
2022/09/23 09:19:18;;;;;;;4.83;2.63;;;;;;;15.17;100.00;99194.59;5135463;27;20202;-84
2022/09/23 09:21:48;;;;;;;3.27;2.70;;;;;;;15.00;100.00;99190.63;5132064;27;20216;-81
2022/09/23 09:24:21;;;;;;;3.00;2.60;;;;;;;14.81;100.00;99190.41;5132192;27;20206;-81
2022/09/23 09:26:51;;;;;;;3.57;2.60;;;;;;;15.12;100.00;99194.09;5131970;27;20330;-81
2022/09/23 09:29:25;;;;;;;4.73;2.60;;;;;;;15.04;100.00;99192.06;5131361;27;20218;-81
2022/09/23 09:32:19;;;;;;;3.47;2.90;;;;;;;14.83;100.00;99199.16;5136863;27;20194;-81
2022/09/23 09:34:53;;;;;;;2.63;2.43;;;;;;;14.88;100.00;99194.28;5130809;27;20190;-81
2022/09/23 09:37:31;;;;;;;5.60;2.30;;;;;;;15.41;100.00;99192.53;5134522;27;20266;-81
2022/09/23 09:40:02;;;;;;;2.73;2.53;;;;;;;15.73;100.00;99186.38;5068315;28;20196;-81
2022/09/23 09:42:38;;;;;;;4.13;2.50;;;;;;;15.56;100.00;99187.75;5069174;28;20204;-81
2022/09/23 09:45:18;;;;;;;4.77;3.30;;;;;;;15.55;100.00;99185.22;5063599;28;20310;-81
2022/09/23 09:47:52;;;;;;;3.47;2.70;;;;;;;15.58;100.00;99182.28;5063635;28;20221;-81
2022/09/23 09:50:45;;;;;;;3.67;2.80;;;;;;;15.76;100.00;99166.56;5070124;28;20307;-81
2022/09/23 09:53:22;;;;;;;3.60;2.90;;;;;;;15.46;100.00;99168.13;5055643;28;20207;-80
2022/09/23 09:56:03;;;;;;;4.13;3.20;;;;;;;15.65;100.00;99165.66;5068933;28;20184;-81
2022/09/23 09:58:42;;;;;;;4.80;3.10;;;;;;;15.57;100.00;99152.06;5109991;27;20201;-81
2022/09/23 10:01:19;;;;;;;4.30;2.90;;;;;;;15.73;100.00;99146.31;5129472;27;20284;-81
2022/09/23 10:03:51;;;;;;;3.97;3.40;;;;;;;16.01;100.00;99148.25;5130245;27;20216;-80
2022/09/23 10:06:28;;;;;;;5.03;2.40;;;;;;;16.20;100.00;99144.00;5132271;27;20319;-81
2022/09/23 10:09:10;;;;;;;3.83;2.90;;;;;;;16.43;98.38;99144.66;5134476;27;20347;-81
2022/09/23 10:11:42;;;;;;;3.00;2.70;;;;;;;16.71;94.98;99141.25;5132358;27;20251;-82
2022/09/23 10:14:13;;;;;;;3.90;2.70;;;;;;;16.19;97.94;99147.66;5126063;27;20319;-84
2022/09/23 10:16:42;;;;;;;3.37;2.30;;;;;;;16.39;98.09;99145.91;5129584;27;20229;-84
2022/09/23 10:19:17;;;;;;;3.57;2.43;;;;;;;16.74;96.15;99145.47;5126715;27;20194;-84
2022/09/23 10:21:52;;;;;;;4.10;3.00;;;;;;;16.87;91.67;99154.94;5129620;27;20243;-84
2022/09/23 10:24:25;;;;;;;3.60;2.60;;;;;;;17.33;86.82;99149.91;5128031;27;20218;-81
2022/09/23 10:27:00;;;;;;;4.73;2.50;;;;;;;17.39;84.93;99152.88;5128489;27;20361;-80
2022/09/23 10:29:31;;;;;;;2.80;2.50;;;;;;;17.32;81.95;99143.72;5103791;28;20194;-80
2022/09/23 10:32:24;;;;;;;4.73;2.73;;;;;;;17.52;85.34;99146.38;5108153;28;20187;-80
2022/09/23 10:34:59;;;;;;;3.23;2.43;;;;;;;16.88;93.89;99135.22;5031001;28;20197;-80
2022/09/23 10:37:33;;;;;;;3.57;2.57;;;;;;;17.53;90.04;99135.50;5029498;28;20201;-80
2022/09/23 10:49:27;;;;;;;5.30;2.80;;;;;;;18.34;80.96;99132.38;5049240;28;20204;-81
2022/09/23 10:52:09;;;;;;;3.93;2.50;;;;;;;17.78;81.96;99128.75;5016110;27;20644;-81
2022/09/23 10:54:52;;;;;;;2.53;2.30;;;;;;;17.52;80.77;99125.78;5133535;27;20286;-82
2022/09/23 10:57:39;;;;;;;3.23;2.80;;;;;;;17.03;87.15;99119.63;5130138;27;20189;-82
2022/09/23 11:00:32;;;;;;;3.63;2.77;;;;;;;17.49;86.64;99122.56;5134976;27;20218;-82
2022/09/23 11:03:42;;;;;;;4.00;2.80;;;;;;;17.56;86.49;99112.94;5135110;27;20300;-81
2022/09/23 11:06:23;;;;;;;5.27;2.93;;;;;;;18.34;80.05;99111.75;5131084;27;20753;-81
2022/09/23 11:09:07;;;;;;;4.57;2.53;;;;;;;18.73;79.54;99101.69;5134280;27;20187;-82
2022/09/23 11:11:53;;;;;;;3.00;2.70;;;;;;;18.94;75.25;99111.28;5134749;27;20191;-82
2022/09/23 11:14:43;;;;;;;2.63;2.40;;;;;;;19.08;70.05;99108.06;5136085;27;20214;-82
2022/09/23 11:17:46;;;;;;;3.20;2.30;;;;;;;19.45;68.62;99102.50;5129719;27;20660;-82
2022/09/23 11:20:32;;;;;;;3.43;2.40;;;;;;;19.17;66.70;99097.22;5080462;27;20194;-82
2022/09/23 11:23:20;;;;;;;3.80;2.50;;;;;;;18.02;73.19;99082.69;5138035;27;20195;-82
2022/09/23 11:25:56;;;;;;;3.33;2.60;;;;;;;18.62;75.76;99079.53;5133738;27;20286;-82
2022/09/23 11:29:03;;;;;;;4.00;2.73;;;;;;;18.89;75.82;99076.84;5133728;27;20247;-82
2022/09/23 11:31:46;;;;;;;4.17;2.60;;;;;;;19.15;70.82;99087.66;5044336;27;20205;-82
2022/09/23 11:34:36;;;;;;;3.47;2.50;;;;;;;18.95;72.43;99084.28;5131900;27;20194;-81
2022/09/23 11:37:12;;;;;;;4.30;2.43;;;;;;;19.33;69.13;99072.38;5137175;27;20183;-82
2022/09/23 11:39:47;;;;;;;3.37;2.90;;;;;;;19.57;67.70;99070.88;5134318;27;20323;-81
2022/09/23 11:42:21;;;;;;;2.70;2.50;;;;;;;19.58;68.65;99069.88;5129991;27;20221;-82
2022/09/23 11:44:56;;;;;;;3.83;2.80;;;;;;;19.24;69.38;99059.03;5128875;27;20265;-82
2022/09/23 11:47:29;;;;;;;3.77;2.30;;;;;;;19.58;71.28;99059.13;5136770;27;20198;-82
2022/09/23 11:50:05;;;;;;;5.13;2.60;;;;;;;19.86;68.30;99047.19;5132861;27;20302;-82
2022/09/23 11:52:41;;;;;;;3.47;2.83;;;;;;;19.73;64.38;99041.44;5133023;27;20640;-82
2022/09/23 11:55:17;;;;;;;3.17;2.77;;;;;;;19.87;62.41;99051.56;5128635;27;20645;-82
2022/09/23 11:57:54;;;;;;;3.90;2.70;;;;;;;19.99;64.17;99044.09;5132753;27;20198;-82
2022/09/23 12:00:25;;;;;;;3.23;2.93;;;;;;;19.97;64.39;99044.22;5136965;27;20186;-82
2022/09/23 12:03:05;;;;;;;4.17;3.00;;;;;;;19.16;67.40;99041.84;5101381;27;20300;-81
2022/09/23 12:05:39;;;;;;;3.70;3.40;;;;;;;18.90;73.83;99038.25;5127170;27;20222;-82
2022/09/23 12:08:17;;;;;;;7.60;3.13;;;;;;;19.31;72.44;99030.56;5135714;27;20277;-81
2022/09/23 12:10:55;;;;;;;4.07;3.03;;;;;;;19.81;68.45;99028.03;5126440;27;20243;-82
2022/09/23 12:13:32;;;;;;;3.70;3.03;;;;;;;19.77;67.18;99032.03;5127462;27;20217;-82
2022/09/23 12:16:25;;;;;;;4.17;3.13;;;;;;;19.53;70.30;99026.50;5131071;27;20221;-82